Aérodrome :
LOGIN :

S'inscrire | Disclaimer

   EN    FR    IT 

 










Légende :    VFR   VFR Marginal   IFR   IFR Intensif   IFR Très Intensif
Visi : 
Plafond : 
>= 8 km
>= 3000ft
5 à 8 km
1000 à 3000 ft
1500m à 5 km
500 à 1000 ft
800 à 1500m
200 à 500 ft
< 800m
< 200 ft
Symboles :   Orages  Brouillard  Fortes neiges  Fortes précipitations  Vent > 20 kt
SIGMETs :   Divers  Orages  Givrage  Turbulence  Onde Orograph.  Cendres Volcan.






- Altitude de l'aérodrome : 751 ft
- Code IATA : ENC


LFSN - Nancy Essey

DERNIER METAR :
  • 091930Z AUTO VRB02KT 9000 OVC031 M00/M02 Q1004

METARs EXPIRÉS :
  • 090500Z AUTO 36004KT 0650 R03/0800N FZFG VV/// M02/M02 Q1004
  • 091900Z AUTO 01003KT 9999 FEW027 00/M02 Q1004
  • 091830Z AUTO 36002KT 9999 OVC026 01/M01 Q1004
  • 091800Z AUTO 01002KT 9999 OVC025 00/M01 Q1004
  • 091730Z AUTO 02003KT 9999 OVC024 00/M01 Q1004
  • 091700Z AUTO 03004KT 9999 OVC026 M00/M01 Q1004

Prévision TAF périmée.



MET'MAP, la Météo Aéronautique d'un coup d'oeil ! - Copyright ORBIFLY Décembre 2007 - Disclaimer

ORBIFLY MET'MAP TEAM :

Programmation & Développement : Alexandra Zaïnal
Sur une idée originale de : Baudouin d'Aumeries
Soutien technique & logistique : Manuel Goepfert
Assistance : Marc-Olivier Méhu




SOURCES & CREDITS :

   NOAA